Time;durP1;ratioP1;P1;durP2;ratioP2;P2;SDS_P1;SDS_P2;PMS_P1;PMS_P2;Temp;Humidity;BMP_temperature;BMP_pressure;BME280_temperature;BME280_humidity;BME280_pressure;Samples;Min_cycle;Max_cycle;Signal;HPM_P1;HPM_P2
2021/03/19 00:00:23;;;;;;;4.97;2.90;;;5.90;99.90;;;;;;4981973;28;20227;-68
2021/03/19 00:02:51;;;;;;;5.60;3.23;;;5.90;99.90;;;;;;4972896;28;20289;-69
2021/03/19 00:05:17;;;;;;;5.33;3.30;;;5.90;99.90;;;;;;4987898;28;20459;-69
2021/03/19 00:07:48;;;;;;;3.50;2.97;;;5.90;99.90;;;;;;4984398;28;20965;-69
2021/03/19 00:10:18;;;;;;;5.20;4.00;;;5.90;99.90;;;;;;4975037;28;20458;-69
2021/03/19 00:12:44;;;;;;;9.50;4.10;;;5.90;99.90;;;;;;4986138;28;20492;-69
2021/03/19 00:15:11;;;;;;;9.27;4.70;;;5.80;99.90;;;;;;4980591;28;20462;-70
2021/03/19 00:17:38;;;;;;;6.40;3.50;;;5.80;99.90;;;;;;4976307;28;20447;-68
2021/03/19 00:20:09;;;;;;;4.60;3.97;;;5.80;99.90;;;;;;4976133;28;20462;-69
2021/03/19 00:22:36;;;;;;;4.60;3.00;;;5.80;99.90;;;;;;4967206;28;20485;-67
2021/03/19 00:25:02;;;;;;;5.50;4.17;;;5.80;99.90;;;;;;4965249;28;20521;-68
2021/03/19 00:27:28;;;;;;;6.93;4.57;;;5.80;99.90;;;;;;4966162;28;20458;-68
2021/03/19 00:29:54;;;;;;;6.43;4.47;;;5.80;99.90;;;;;;4964243;28;20593;-68
2021/03/19 00:32:20;;;;;;;8.60;4.47;;;5.80;99.90;;;;;;4986191;28;20819;-67
2021/03/19 00:34:46;;;;;;;5.83;3.90;;;5.80;99.90;;;;;;4972089;28;20230;-68
2021/03/19 00:37:11;;;;;;;7.80;4.83;;;5.70;99.90;;;;;;4966526;28;20470;-67
2021/03/19 00:39:37;;;;;;;7.20;3.97;;;5.70;99.90;;;;;;4986874;28;20295;-67
2021/03/19 00:42:04;;;;;;;7.80;4.47;;;5.70;99.90;;;;;;4956232;28;20258;-68
2021/03/19 00:44:30;;;;;;;7.67;3.53;;;5.70;99.90;;;;;;5000135;28;20446;-68
2021/03/19 00:46:56;;;;;;;7.17;4.10;;;5.70;99.90;;;;;;4992165;28;20460;-67
2021/03/19 00:49:21;;;;;;;6.43;4.07;;;5.60;99.90;;;;;;4991346;28;20288;-68
2021/03/19 00:51:48;;;;;;;5.60;3.60;;;5.60;99.90;;;;;;4992482;28;20313;-68
2021/03/19 00:54:14;;;;;;;6.13;3.87;;;5.60;99.90;;;;;;4991992;28;20492;-67
2021/03/19 00:56:39;;;;;;;6.33;3.80;;;5.60;99.90;;;;;;4986797;28;20487;-69
2021/03/19 00:59:07;;;;;;;6.43;3.70;;;5.60;99.90;;;;;;4974552;28;20736;-68
2021/03/19 01:01:34;;;;;;;5.27;3.83;;;5.60;99.90;;;;;;4955662;28;20593;-67
2021/03/19 01:04:01;;;;;;;4.70;3.33;;;5.60;99.90;;;;;;4975593;28;20468;-68
2021/03/19 01:06:26;;;;;;;5.90;3.57;;;5.60;99.90;;;;;;4958085;28;20450;-71
2021/03/19 01:08:52;;;;;;;3.37;2.93;;;5.60;99.90;;;;;;4972695;28;20897;-68
2021/03/19 01:11:18;;;;;;;3.43;2.33;;;5.60;99.90;;;;;;4988566;28;20214;-68
2021/03/19 01:13:44;;;;;;;3.47;2.60;;;5.60;99.90;;;;;;4989105;28;20254;-68
2021/03/19 01:16:09;;;;;;;3.10;1.93;;;5.60;99.90;;;;;;4988933;28;20226;-68
2021/03/19 01:18:35;;;;;;;4.70;2.87;;;5.60;99.90;;;;;;4988536;28;20223;-67
2021/03/19 01:21:01;;;;;;;4.10;2.97;;;5.60;99.90;;;;;;4956674;28;20237;-69
2021/03/19 01:23:27;;;;;;;3.00;2.13;;;5.60;99.90;;;;;;4988594;28;20227;-67
2021/03/19 01:25:54;;;;;;;2.50;2.30;;;5.50;99.90;;;;;;4997654;28;20222;-67
2021/03/19 01:28:20;;;;;;;2.73;2.13;;;5.50;99.90;;;;;;5011412;28;20309;-68
2021/03/19 01:30:46;;;;;;;2.80;2.00;;;5.50;99.90;;;;;;5011369;28;20532;-68
2021/03/19 01:33:12;;;;;;;2.70;2.33;;;5.40;99.90;;;;;;5012044;28;20233;-69
2021/03/19 01:35:40;;;;;;;5.20;3.50;;;5.50;99.90;;;;;;5011318;28;20457;-68
2021/03/19 01:38:08;;;;;;;5.60;4.10;;;5.40;99.90;;;;;;4991099;28;20530;-68
2021/03/19 01:40:42;;;;;;;3.93;2.90;;;5.40;99.90;;;;;;4972091;28;20997;-67
2021/03/19 01:43:16;;;;;;;5.67;4.10;;;5.40;99.90;;;;;;4971569;28;20470;-67
2021/03/19 01:46:00;;;;;;;4.00;3.00;;;5.40;99.90;;;;;;4991816;28;20847;-70
2021/03/19 01:49:04;;;;;;;4.40;2.70;;;5.40;99.90;;;;;;4975111;28;20457;-67
2021/03/19 01:52:07;;;;;;;3.50;2.87;;;5.50;99.90;;;;;;4992480;28;20461;-67
2021/03/19 01:55:10;;;;;;;3.07;2.77;;;5.50;99.90;;;;;;4991419;28;20461;-66
2021/03/19 01:58:13;;;;;;;7.43;2.87;;;5.40;99.90;;;;;;5009036;28;20445;-66
2021/03/19 02:01:17;;;;;;;5.50;3.50;;;5.40;99.90;;;;;;4992629;28;20455;-67
2021/03/19 02:04:20;;;;;;;3.43;2.77;;;5.40;99.90;;;;;;4983273;28;20939;-69
2021/03/19 02:07:23;;;;;;;5.80;3.50;;;5.50;99.90;;;;;;4991632;28;20819;-68
2021/03/19 02:10:26;;;;;;;5.07;3.17;;;5.50;99.90;;;;;;4990866;28;20454;-68
2021/03/19 02:13:30;;;;;;;5.43;3.27;;;5.50;99.90;;;;;;4990949;28;20477;-67
2021/03/19 02:16:33;;;;;;;3.77;3.00;;;5.40;99.90;;;;;;4973025;28;20465;-67
2021/03/19 02:19:36;;;;;;;4.53;2.90;;;5.40;99.90;;;;;;4971518;28;20509;-67
2021/03/19 02:22:39;;;;;;;4.47;2.63;;;5.40;99.90;;;;;;4982825;28;20458;-67
2021/03/19 02:25:42;;;;;;;4.17;3.30;;;5.40;99.90;;;;;;4987751;28;20461;-67
2021/03/19 02:28:45;;;;;;;5.50;3.37;;;5.40;99.90;;;;;;5010299;28;20452;-67
2021/03/19 02:31:13;;;;;;;4.33;3.30;;;5.40;99.90;;;;;;5010275;28;20456;-67
2021/03/19 02:33:42;;;;;;;4.90;3.40;;;5.40;99.90;;;;;;5010226;28;20453;-68
2021/03/19 02:36:09;;;;;;;5.83;3.77;;;5.40;99.90;;;;;;5009793;28;20457;-67
2021/03/19 02:38:35;;;;;;;5.47;3.50;;;5.40;99.90;;;;;;4957933;28;20446;-67
2021/03/19 02:41:00;;;;;;;5.90;3.10;;;5.40;99.90;;;;;;4990771;28;20454;-67
2021/03/19 02:43:26;;;;;;;5.50;3.20;;;5.40;99.90;;;;;;4958070;28;20219;-68
2021/03/19 02:45:52;;;;;;;6.63;3.03;;;5.30;99.90;;;;;;4974527;28;20223;-69
2021/03/19 02:48:19;;;;;;;4.77;3.40;;;5.20;99.90;;;;;;4974199;28;20223;-67
2021/03/19 02:50:44;;;;;;;6.50;3.80;;;5.20;99.90;;;;;;4974265;28;20225;-67
2021/03/19 02:53:20;;;;;;;4.73;3.43;;;5.20;99.90;;;;;;4974075;28;20545;-66
2021/03/19 02:55:46;;;;;;;4.73;3.43;;;5.10;99.90;;;;;;4974832;28;20232;-66
2021/03/19 02:58:12;;;;;;;5.33;3.00;;;5.10;99.90;;;;;;4958412;28;20446;-67
2021/03/19 03:00:38;;;;;;;5.60;3.60;;;5.10;99.90;;;;;;4973908;28;20445;-68
2021/03/19 03:03:04;;;;;;;6.07;3.73;;;5.10;99.90;;;;;;4951662;28;20222;-67
2021/03/19 03:05:30;;;;;;;5.13;3.17;;;5.10;99.90;;;;;;4965593;28;20230;-67
2021/03/19 03:07:56;;;;;;;6.73;3.37;;;5.10;99.90;;;;;;4974178;28;20457;-68
2021/03/19 03:10:24;;;;;;;4.13;3.67;;;5.00;99.90;;;;;;4989679;28;20744;-67
2021/03/19 03:12:50;;;;;;;4.43;3.50;;;5.00;99.90;;;;;;4980323;28;20999;-68
2021/03/19 03:15:18;;;;;;;4.90;2.40;;;5.00;99.90;;;;;;4954103;28;20468;-67
2021/03/19 03:17:44;;;;;;;3.00;2.27;;;5.00;99.90;;;;;;4951503;29;20228;-67
2021/03/19 03:20:15;;;;;;;3.00;2.10;;;5.00;99.90;;;;;;4951361;29;20984;-67
2021/03/19 03:22:41;;;;;;;2.80;2.40;;;5.10;99.90;;;;;;4972116;28;20459;-67
2021/03/19 03:25:10;;;;;;;4.30;3.03;;;5.00;99.90;;;;;;4970713;28;20543;-67
2021/03/19 03:27:35;;;;;;;3.50;2.33;;;5.00;99.90;;;;;;4976353;28;20505;-67
2021/03/19 03:30:03;;;;;;;2.30;1.87;;;5.00;99.90;;;;;;5009298;28;20995;-66
2021/03/19 03:32:29;;;;;;;3.30;2.63;;;5.00;99.90;;;;;;5008711;28;20249;-67
2021/03/19 03:34:54;;;;;;;4.57;2.53;;;5.00;99.90;;;;;;5009379;28;20457;-68
2021/03/19 03:37:20;;;;;;;2.57;2.27;;;5.00;99.90;;;;;;4994991;28;20215;-68
2021/03/19 03:39:46;;;;;;;2.20;2.00;;;5.00;99.90;;;;;;4942645;28;20224;-67
2021/03/19 03:42:11;;;;;;;2.93;1.97;;;5.00;99.90;;;;;;4957700;28;20303;-68
2021/03/19 03:44:37;;;;;;;2.93;2.10;;;5.00;99.90;;;;;;4973553;28;20222;-67
2021/03/19 03:47:03;;;;;;;3.57;2.43;;;5.00;99.90;;;;;;4957655;28;20237;-67
2021/03/19 03:49:28;;;;;;;3.53;2.80;;;4.90;99.90;;;;;;4989045;28;20237;-68
2021/03/19 03:51:54;;;;;;;6.60;2.83;;;5.00;99.90;;;;;;4957572;28;20289;-67
2021/03/19 03:54:20;;;;;;;2.97;2.47;;;4.90;99.90;;;;;;4957513;28;20226;-67
2021/03/19 03:56:46;;;;;;;6.87;3.40;;;4.90;99.90;;;;;;4974001;28;20276;-67
2021/03/19 03:59:12;;;;;;;5.93;3.40;;;4.90;99.90;;;;;;4973354;28;20309;-67
2021/03/19 04:01:39;;;;;;;4.00;2.67;;;4.90;99.90;;;;;;4969818;28;20550;-67
2021/03/19 04:04:06;;;;;;;4.80;3.73;;;4.90;99.90;;;;;;4956100;28;20460;-68
2021/03/19 04:06:32;;;;;;;4.23;2.63;;;4.90;99.90;;;;;;4992588;28;20468;-67
2021/03/19 04:08:58;;;;;;;5.47;2.97;;;4.90;99.90;;;;;;4988614;28;20450;-67
2021/03/19 04:11:23;;;;;;;4.40;2.80;;;4.90;99.90;;;;;;4957476;28;20272;-69
2021/03/19 04:13:50;;;;;;;4.83;2.70;;;4.90;99.90;;;;;;4970785;28;20246;-68
2021/03/19 04:16:19;;;;;;;4.63;3.00;;;4.90;99.90;;;;;;4968469;28;20222;-68
2021/03/19 04:18:45;;;;;;;5.27;2.93;;;4.90;99.90;;;;;;4938953;29;20991;-67
2021/03/19 04:21:12;;;;;;;4.07;3.63;;;4.90;99.90;;;;;;4938296;29;20460;-68
2021/03/19 04:23:41;;;;;;;6.90;3.70;;;4.80;99.90;;;;;;4954081;29;20973;-68
2021/03/19 04:26:17;;;;;;;4.40;3.50;;;4.90;99.90;;;;;;4961845;28;20462;-67
2021/03/19 04:28:43;;;;;;;7.00;4.07;;;4.80;99.90;;;;;;5012706;28;20455;-67
2021/03/19 04:31:08;;;;;;;8.37;4.83;;;4.80;99.90;;;;;;5012660;28;20449;-68
2021/03/19 04:33:34;;;;;;;9.10;4.60;;;4.70;99.90;;;;;;5012271;28;20229;-67
2021/03/19 04:36:28;;;;;;;9.00;5.03;;;4.70;99.90;;;;;;5012935;28;20221;-68
2021/03/19 04:38:58;;;;;;;8.00;4.87;;;4.60;99.90;;;;;;4967994;28;20259;-68
2021/03/19 04:41:24;;;;;;;10.13;5.83;;;4.70;99.90;;;;;;4969769;28;20491;-67
2021/03/19 04:43:50;;;;;;;10.03;5.10;;;4.70;99.90;;;;;;4955551;28;20467;-68
2021/03/19 04:46:15;;;;;;;10.20;4.97;;;4.60;99.90;;;;;;4960676;28;20281;-67
2021/03/19 04:48:41;;;;;;;10.87;6.37;;;4.70;99.90;;;;;;4945370;28;20453;-66
2021/03/19 04:51:07;;;;;;;9.93;5.33;;;4.70;99.90;;;;;;4976184;28;20692;-68
2021/03/19 04:53:33;;;;;;;6.80;4.93;;;4.60;99.90;;;;;;4959609;28;20767;-68
2021/03/19 04:55:58;;;;;;;10.37;5.40;;;4.50;99.90;;;;;;4960223;28;20868;-67
2021/03/19 04:58:24;;;;;;;6.80;4.67;;;4.40;99.90;;;;;;4942579;28;20246;-67
2021/03/19 05:00:50;;;;;;;9.20;5.40;;;4.40;99.90;;;;;;4957050;28;20233;-68
2021/03/19 05:03:15;;;;;;;8.47;4.87;;;4.30;99.90;;;;;;4972437;28;20234;-68
2021/03/19 05:05:41;;;;;;;8.80;4.87;;;4.40;99.90;;;;;;4973040;28;20243;-67
2021/03/19 05:08:09;;;;;;;8.73;4.63;;;4.40;99.90;;;;;;4953126;28;20227;-67
2021/03/19 05:10:36;;;;;;;11.43;6.37;;;4.40;99.90;;;;;;4959277;28;20741;-67
2021/03/19 05:13:02;;;;;;;5.07;3.73;;;4.40;99.90;;;;;;4975946;28;20466;-69
2021/03/19 05:15:30;;;;;;;8.00;4.97;;;4.40;99.90;;;;;;4954264;28;20460;-67
2021/03/19 05:17:56;;;;;;;12.20;6.00;;;4.30;99.90;;;;;;4953817;28;20474;-68
2021/03/19 05:20:22;;;;;;;14.87;5.43;;;4.20;99.90;;;;;;4969079;28;20459;-68
2021/03/19 05:22:48;;;;;;;9.73;5.10;;;4.10;99.90;;;;;;4979576;28;20459;-67
2021/03/19 05:25:19;;;;;;;10.07;5.67;;;4.10;99.90;;;;;;4988122;28;20492;-67
2021/03/19 05:27:45;;;;;;;12.53;6.10;;;4.10;99.90;;;;;;4988546;28;20469;-68
2021/03/19 05:30:13;;;;;;;9.80;5.37;;;4.10;99.90;;;;;;4973406;28;20456;-69
2021/03/19 05:32:39;;;;;;;14.13;6.90;;;4.00;99.90;;;;;;4978664;28;20478;-68
2021/03/19 05:35:07;;;;;;;7.53;4.53;;;3.90;99.90;;;;;;4990990;28;20598;-69
2021/03/19 05:37:32;;;;;;;11.07;5.80;;;3.90;99.90;;;;;;4971836;28;20455;-69
2021/03/19 05:39:58;;;;;;;9.80;4.47;;;4.00;99.90;;;;;;4990793;28;20517;-68
2021/03/19 05:42:30;;;;;;;12.50;6.80;;;4.00;99.90;;;;;;4978052;28;20299;-68
2021/03/19 05:45:03;;;;;;;9.00;5.30;;;4.00;99.90;;;;;;4992044;28;20464;-68
2021/03/19 05:47:29;;;;;;;5.50;4.07;;;4.00;99.90;;;;;;4990877;28;20993;-69
2021/03/19 05:49:59;;;;;;;10.83;5.70;;;4.10;99.90;;;;;;4973239;28;20549;-67
2021/03/19 05:52:33;;;;;;;7.60;5.00;;;4.00;99.90;;;;;;4974590;28;20883;-69
2021/03/19 05:54:59;;;;;;;8.20;5.30;;;4.00;99.90;;;;;;4955332;28;20485;-68
2021/03/19 05:57:30;;;;;;;6.57;4.03;;;3.90;99.90;;;;;;4969261;28;20921;-69
2021/03/19 05:59:59;;;;;;;9.83;5.33;;;3.80;99.90;;;;;;4967164;28;20226;-67
2021/03/19 06:02:31;;;;;;;10.40;5.13;;;3.80;99.90;;;;;;4982036;28;20461;-66
2021/03/19 06:05:17;;;;;;;6.50;3.70;;;3.70;99.90;;;;;;4958608;28;20909;-67
2021/03/19 06:07:48;;;;;;;9.47;6.43;;;3.80;99.90;;;;;;4934523;28;20962;-66
2021/03/19 06:10:28;;;;;;;10.63;5.40;;;3.70;99.90;;;;;;4952034;28;20977;-68
2021/03/19 06:13:12;;;;;;;11.50;6.70;;;3.80;99.90;;;;;;4969149;28;20475;-69
2021/03/19 06:15:40;;;;;;;11.00;6.83;;;3.70;99.90;;;;;;4969792;28;20458;-67
2021/03/19 06:18:21;;;;;;;11.60;4.93;;;3.70;99.90;;;;;;4962919;28;20474;-66
2021/03/19 06:21:06;;;;;;;3.97;2.30;;;3.70;99.90;;;;;;4990236;28;20465;-67
2021/03/19 06:23:33;;;;;;;13.67;5.87;;;3.70;99.90;;;;;;4959362;28;20505;-66
2021/03/19 06:26:05;;;;;;;6.50;3.43;;;3.60;99.90;;;;;;4984667;28;20498;-67
2021/03/19 06:28:40;;;;;;;6.77;4.17;;;3.60;99.90;;;;;;4951765;28;20464;-67
2021/03/19 06:31:21;;;;;;;13.57;5.53;;;3.60;99.90;;;;;;4954867;28;20880;-66
2021/03/19 06:33:47;;;;;;;6.43;3.53;;;3.60;99.90;;;;;;4941507;28;20518;-68
2021/03/19 06:36:20;;;;;;;8.97;4.97;;;3.60;99.90;;;;;;4959410;28;20436;-70
2021/03/19 06:39:09;;;;;;;10.07;5.40;;;3.50;99.90;;;;;;4946412;28;20510;-69
2021/03/19 06:41:37;;;;;;;11.40;4.63;;;3.50;99.90;;;;;;4961289;28;20439;-67
2021/03/19 06:44:14;;;;;;;12.27;5.07;;;3.40;99.90;;;;;;4970036;28;20534;-67
2021/03/19 06:46:46;;;;;;;13.90;7.67;;;3.50;99.90;;;;;;4972557;28;20446;-67
2021/03/19 06:49:14;;;;;;;8.70;4.47;;;3.50;99.90;;;;;;4973163;28;20446;-67
2021/03/19 06:51:45;;;;;;;12.20;5.93;;;3.50;99.90;;;;;;4967792;28;20902;-67
2021/03/19 06:54:17;;;;;;;14.77;7.03;;;3.50;99.90;;;;;;4967931;28;20462;-66
2021/03/19 06:57:04;;;;;;;4.70;3.97;;;3.50;99.90;;;;;;4988128;28;20461;-67
2021/03/19 06:59:41;;;;;;;11.80;6.30;;;3.50;99.90;;;;;;4987616;28;20534;-67
2021/03/19 07:02:48;;;;;;;13.77;5.97;;;3.40;99.90;;;;;;4979448;28;20460;-68
2021/03/19 07:05:34;;;;;;;7.70;4.73;;;3.50;99.90;;;;;;4944264;28;20463;-66
2021/03/19 07:08:03;;;;;;;7.60;4.43;;;3.50;99.90;;;;;;4989316;28;20457;-70
2021/03/19 07:10:34;;;;;;;12.10;6.33;;;3.40;99.90;;;;;;4971877;28;20469;-68
2021/03/19 07:13:36;;;;;;;5.80;3.20;;;3.50;99.90;;;;;;4988923;28;20470;-66
2021/03/19 07:16:25;;;;;;;7.80;4.60;;;3.40;99.90;;;;;;4973251;28;20460;-67
2021/03/19 07:19:29;;;;;;;6.17;3.80;;;3.40;99.90;;;;;;4953175;28;20459;-68
2021/03/19 07:22:10;;;;;;;10.90;6.37;;;3.40;99.90;;;;;;4950972;28;20448;-66
2021/03/19 07:25:06;;;;;;;10.60;5.63;;;3.40;99.90;;;;;;4968229;28;20450;-67
2021/03/19 07:27:48;;;;;;;13.97;7.13;;;3.40;99.90;;;;;;4965280;28;20451;-66
2021/03/19 07:30:20;;;;;;;9.53;5.17;;;3.40;99.90;;;;;;4977267;28;20467;-66
2021/03/19 07:33:08;;;;;;;5.97;3.63;;;3.40;99.90;;;;;;4982349;28;20499;-67
2021/03/19 07:35:58;;;;;;;13.03;5.47;;;3.40;99.90;;;;;;4981393;28;20439;-67
2021/03/19 07:38:56;;;;;;;11.83;6.03;;;3.40;99.90;;;;;;4966142;28;20467;-69
2021/03/19 07:41:45;;;;;;;17.80;6.23;;;3.50;99.90;;;;;;4967540;28;20529;-66
2021/03/19 07:44:25;;;;;;;11.10;5.47;;;3.50;99.90;;;;;;4956108;28;20502;-67
2021/03/19 07:47:24;;;;;;;10.17;5.37;;;3.50;99.90;;;;;;4951639;28;20545;-66
2021/03/19 07:50:17;;;;;;;11.00;6.07;;;3.50;99.90;;;;;;5003826;28;20465;-69
2021/03/19 07:53:20;;;;;;;11.33;5.67;;;3.50;99.90;;;;;;4964072;28;20563;-67
2021/03/19 07:55:55;;;;;;;17.90;7.40;;;3.50;99.90;;;;;;4963719;28;20490;-66
2021/03/19 07:58:40;;;;;;;5.70;2.97;;;3.50;99.90;;;;;;4933883;28;20470;-68
2021/03/19 08:01:21;;;;;;;12.87;6.77;;;3.50;99.90;;;;;;4963822;28;20465;-66
2021/03/19 08:03:56;;;;;;;5.20;2.97;;;3.60;99.90;;;;;;4969888;28;20469;-67
2021/03/19 08:06:31;;;;;;;10.17;6.07;;;3.60;99.90;;;;;;4952941;28;20469;-67
2021/03/19 08:09:12;;;;;;;15.00;6.87;;;3.60;99.90;;;;;;4950518;28;20825;-68
2021/03/19 08:11:54;;;;;;;15.40;6.63;;;3.70;99.90;;;;;;4982582;28;20472;-66
2021/03/19 08:14:39;;;;;;;12.17;6.87;;;3.70;99.90;;;;;;4964707;28;20478;-68
2021/03/19 08:17:20;;;;;;;13.13;6.63;;;3.70;99.90;;;;;;4979807;28;20465;-67
2021/03/19 08:19:55;;;;;;;11.70;5.83;;;3.80;99.90;;;;;;4969971;28;20972;-67
2021/03/19 08:22:29;;;;;;;10.33;6.83;;;3.80;99.90;;;;;;4967821;28;20544;-68
2021/03/19 08:25:19;;;;;;;8.73;5.57;;;3.80;99.90;;;;;;4968920;28;20454;-68
2021/03/19 08:27:51;;;;;;;11.90;5.33;;;3.80;99.90;;;;;;4973995;28;20477;-67
2021/03/19 08:30:42;;;;;;;10.43;5.37;;;3.80;99.90;;;;;;4973301;28;20508;-66
2021/03/19 08:33:16;;;;;;;9.43;6.00;;;3.80;99.90;;;;;;4986110;28;20464;-68
2021/03/19 08:35:58;;;;;;;13.00;6.80;;;3.90;99.90;;;;;;4966383;28;20486;-68
2021/03/19 08:38:45;;;;;;;7.27;3.50;;;3.90;99.90;;;;;;4968316;28;20453;-67
2021/03/19 08:41:27;;;;;;;8.30;6.33;;;3.90;99.90;;;;;;4978556;28;20475;-67
2021/03/19 08:43:56;;;;;;;3.90;3.47;;;4.00;99.90;;;;;;4980577;28;20479;-68
2021/03/19 08:46:48;;;;;;;13.33;6.67;;;4.10;99.90;;;;;;4985147;28;20466;-66
2021/03/19 08:49:35;;;;;;;11.73;5.73;;;4.30;99.90;;;;;;4968160;28;20516;-67
2021/03/19 08:52:35;;;;;;;12.80;4.70;;;4.30;99.90;;;;;;4969038;28;20478;-67
2021/03/19 08:55:13;;;;;;;11.63;4.77;;;4.30;99.90;;;;;;4990448;28;20466;-69
2021/03/19 08:57:47;;;;;;;11.00;6.23;;;4.30;99.90;;;;;;4980490;28;20449;-68
2021/03/19 09:00:13;;;;;;;7.43;4.27;;;4.30;99.90;;;;;;4981882;28;20461;-69
2021/03/19 09:02:52;;;;;;;12.27;6.00;;;4.30;99.90;;;;;;4963181;28;20557;-68
2021/03/19 09:05:56;;;;;;;10.00;5.20;;;4.30;99.90;;;;;;4969882;28;20537;-66
2021/03/19 09:08:29;;;;;;;10.00;5.60;;;4.30;99.90;;;;;;4909871;29;20919;-66
2021/03/19 09:10:59;;;;;;;18.30;7.20;;;4.30;99.90;;;;;;4896323;29;20469;-67
2021/03/19 09:13:26;;;;;;;6.57;4.30;;;4.30;99.90;;;;;;4954718;28;21022;-69
2021/03/19 09:15:54;;;;;;;12.63;4.83;;;4.40;99.90;;;;;;4958749;28;20498;-66
2021/03/19 09:18:46;;;;;;;7.40;4.60;;;4.40;99.90;;;;;;4959452;28;20474;-67
2021/03/19 09:21:36;;;;;;;4.03;3.40;;;4.50;99.90;;;;;;4970874;28;20481;-66
2021/03/19 09:24:03;;;;;;;13.53;6.50;;;4.40;99.90;;;;;;4971803;28;20494;-66
2021/03/19 09:26:45;;;;;;;9.67;4.67;;;4.50;99.90;;;;;;4972985;28;20459;-66
2021/03/19 09:29:14;;;;;;;12.77;5.50;;;4.50;99.90;;;;;;4954922;28;20529;-68
2021/03/19 09:32:14;;;;;;;7.10;4.83;;;4.60;99.90;;;;;;5010186;28;20463;-66
2021/03/19 09:34:43;;;;;;;6.30;3.20;;;4.60;99.90;;;;;;5001505;28;20857;-66
2021/03/19 09:37:31;;;;;;;9.37;3.63;;;4.60;99.90;;;;;;4994308;28;20494;-67
2021/03/19 09:40:07;;;;;;;5.27;3.20;;;4.60;99.90;;;;;;4990866;28;20471;-67
2021/03/19 09:42:33;;;;;;;7.83;4.90;;;4.70;99.90;;;;;;4989070;28;20471;-66
2021/03/19 09:44:59;;;;;;;8.50;5.03;;;4.70;99.90;;;;;;4973331;28;20549;-67
2021/03/19 09:47:38;;;;;;;6.03;4.73;;;4.90;99.90;;;;;;4988335;28;20511;-68
2021/03/19 09:50:07;;;;;;;8.37;4.00;;;4.90;99.90;;;;;;4989519;28;20230;-66
2021/03/19 09:52:32;;;;;;;5.30;2.93;;;4.90;99.90;;;;;;4973970;28;21001;-67
2021/03/19 09:54:58;;;;;;;7.63;3.77;;;4.90;99.90;;;;;;4969990;28;20466;-65
2021/03/19 09:57:28;;;;;;;5.10;3.10;;;4.80;99.90;;;;;;4951904;28;21197;-66
2021/03/19 10:00:07;;;;;;;8.47;4.53;;;4.80;99.90;;;;;;4969976;28;20220;-66
2021/03/19 10:02:39;;;;;;;5.33;3.80;;;4.80;99.90;;;;;;4969067;28;20844;-67
2021/03/19 10:05:07;;;;;;;7.87;4.23;;;4.80;99.90;;;;;;4976370;28;20464;-67
2021/03/19 10:07:33;;;;;;;5.03;3.13;;;4.80;99.90;;;;;;4971456;28;20845;-67
2021/03/19 10:09:59;;;;;;;7.23;5.00;;;4.80;99.90;;;;;;4979368;28;20458;-68
2021/03/19 10:12:32;;;;;;;7.67;4.50;;;4.80;99.90;;;;;;4970796;28;20242;-67
2021/03/19 10:15:14;;;;;;;5.40;4.07;;;4.90;99.90;;;;;;4976279;28;20218;-66
2021/03/19 10:17:52;;;;;;;5.70;3.10;;;4.90;99.90;;;;;;5009688;28;20444;-67
2021/03/19 10:20:22;;;;;;;6.47;3.40;;;4.90;99.90;;;;;;5000482;28;20464;-67
2021/03/19 10:22:51;;;;;;;5.57;4.03;;;4.90;99.90;;;;;;4974289;28;20474;-67
2021/03/19 10:25:29;;;;;;;3.10;2.60;;;4.90;99.90;;;;;;4954681;28;20447;-66
2021/03/19 10:28:03;;;;;;;8.90;3.43;;;4.80;99.90;;;;;;4956387;28;20455;-66
2021/03/19 10:30:29;;;;;;;8.87;4.07;;;4.90;99.90;;;;;;4960510;28;20973;-66
2021/03/19 10:32:58;;;;;;;8.50;3.87;;;4.90;99.90;;;;;;4951912;28;20569;-66
2021/03/19 10:35:36;;;;;;;4.47;2.50;;;5.00;99.90;;;;;;4975053;28;20223;-67
2021/03/19 10:38:16;;;;;;;4.30;2.70;;;5.10;99.90;;;;;;4951347;28;20459;-68
2021/03/19 10:40:46;;;;;;;5.83;4.03;;;5.20;99.90;;;;;;4987286;28;20458;-67
2021/03/19 10:43:42;;;;;;;6.97;3.97;;;5.30;99.90;;;;;;4987519;28;20489;-67
2021/03/19 10:46:20;;;;;;;5.93;2.93;;;5.20;99.90;;;;;;4987056;28;20469;-67
2021/03/19 10:48:55;;;;;;;3.20;2.53;;;5.10;99.90;;;;;;4987371;28;20465;-67
2021/03/19 10:51:27;;;;;;;8.13;3.77;;;5.10;99.90;;;;;;4987005;28;20490;-67
2021/03/19 10:54:15;;;;;;;7.87;3.70;;;5.10;99.90;;;;;;4987487;28;20473;-67
2021/03/19 10:56:47;;;;;;;3.20;2.53;;;5.10;99.90;;;;;;4987075;28;20450;-68
2021/03/19 10:59:20;;;;;;;6.23;3.27;;;5.20;99.90;;;;;;4986861;28;21009;-69
2021/03/19 11:01:47;;;;;;;2.87;2.30;;;5.10;99.90;;;;;;4987352;28;20492;-66
2021/03/19 11:04:34;;;;;;;7.47;4.03;;;5.20;99.90;;;;;;4986292;28;20511;-67
2021/03/19 11:07:28;;;;;;;5.10;3.47;;;5.10;99.90;;;;;;4987087;28;20461;-66
2021/03/19 11:10:09;;;;;;;3.97;3.10;;;5.10;99.90;;;;;;4970625;28;20466;-66
2021/03/19 11:12:57;;;;;;;3.57;2.67;;;5.20;99.90;;;;;;4972768;28;20470;-66
2021/03/19 11:15:46;;;;;;;4.97;3.33;;;5.20;99.90;;;;;;4967830;28;20465;-66
2021/03/19 11:18:48;;;;;;;3.97;3.10;;;5.20;99.90;;;;;;4970441;28;20470;-66
2021/03/19 11:21:13;;;;;;;3.40;3.00;;;5.30;99.90;;;;;;4956384;28;20485;-67
2021/03/19 11:23:46;;;;;;;5.40;3.90;;;5.30;99.90;;;;;;4968675;28;21098;-66
2021/03/19 11:26:23;;;;;;;7.93;3.67;;;5.30;99.90;;;;;;4993129;28;20233;-67
2021/03/19 11:29:04;;;;;;;6.60;4.10;;;5.30;99.90;;;;;;4976065;28;20955;-66
2021/03/19 11:31:30;;;;;;;6.00;3.80;;;5.30;99.90;;;;;;4967698;28;20465;-67
2021/03/19 11:34:02;;;;;;;8.53;4.23;;;5.30;99.90;;;;;;4955213;28;20927;-66
2021/03/19 11:36:48;;;;;;;6.07;3.30;;;5.30;99.90;;;;;;4984100;28;20209;-65
2021/03/19 11:39:22;;;;;;;7.13;4.30;;;5.30;99.90;;;;;;4968145;28;20463;-66
2021/03/19 11:41:47;;;;;;;7.00;4.57;;;5.30;99.90;;;;;;4986735;28;20457;-67
2021/03/19 11:44:15;;;;;;;5.27;3.30;;;5.40;99.90;;;;;;4938562;28;20609;-67
2021/03/19 11:46:41;;;;;;;8.10;4.10;;;5.30;99.90;;;;;;4970393;28;20230;-67
2021/03/19 11:49:07;;;;;;;9.63;5.13;;;5.30;99.90;;;;;;4954456;28;20461;-70
2021/03/19 11:51:38;;;;;;;7.30;3.93;;;5.40;99.90;;;;;;4985767;28;20285;-67
2021/03/19 11:54:08;;;;;;;5.50;3.60;;;5.40;99.90;;;;;;4955235;28;20644;-67
2021/03/19 11:56:35;;;;;;;7.27;4.40;;;5.30;99.90;;;;;;4970164;28;20461;-67
2021/03/19 11:59:00;;;;;;;4.07;2.60;;;5.40;99.90;;;;;;4953898;28;20453;-68
2021/03/19 12:01:30;;;;;;;4.93;3.73;;;5.40;99.90;;;;;;4953329;28;20445;-66
2021/03/19 12:03:58;;;;;;;5.00;3.50;;;5.40;99.90;;;;;;4984362;28;20285;-66
2021/03/19 12:06:28;;;;;;;6.53;3.37;;;5.50;99.90;;;;;;4969752;28;20465;-68
2021/03/19 12:08:54;;;;;;;7.23;3.67;;;5.40;99.90;;;;;;4970343;28;20456;-68
2021/03/19 12:11:27;;;;;;;6.80;3.63;;;5.50;99.90;;;;;;4969370;28;20581;-67
2021/03/19 12:13:55;;;;;;;4.17;2.60;;;5.60;99.90;;;;;;4986725;28;20480;-68
2021/03/19 12:16:21;;;;;;;8.00;4.87;;;5.60;99.90;;;;;;4969980;28;20454;-67
2021/03/19 12:18:47;;;;;;;6.57;3.53;;;5.60;99.90;;;;;;4986147;28;20445;-67
2021/03/19 12:21:13;;;;;;;6.47;3.97;;;5.60;99.90;;;;;;4968419;28;20215;-68
2021/03/19 12:23:39;;;;;;;4.73;3.13;;;5.70;99.90;;;;;;4957488;28;20231;-67
2021/03/19 12:26:05;;;;;;;5.73;2.90;;;5.70;99.90;;;;;;4972986;28;20466;-67
2021/03/19 12:28:30;;;;;;;5.50;2.23;;;5.70;99.90;;;;;;4986268;28;20226;-68
2021/03/19 12:30:57;;;;;;;6.13;3.63;;;5.70;99.90;;;;;;4978894;28;20233;-66
2021/03/19 12:33:28;;;;;;;6.20;3.57;;;5.70;99.90;;;;;;4988630;28;20226;-69
2021/03/19 12:35:54;;;;;;;4.43;2.77;;;5.70;99.90;;;;;;4965753;28;20504;-66
2021/03/19 12:38:20;;;;;;;6.40;3.23;;;5.70;99.90;;;;;;4954020;28;21108;-67
2021/03/19 12:40:47;;;;;;;5.50;3.43;;;5.70;99.90;;;;;;4975521;28;20254;-67
2021/03/19 12:43:13;;;;;;;7.37;3.60;;;5.70;99.90;;;;;;4951728;28;20338;-67
2021/03/19 12:45:40;;;;;;;8.57;4.60;;;5.70;99.90;;;;;;4954605;28;20442;-68
2021/03/19 12:48:07;;;;;;;5.90;3.37;;;5.70;99.90;;;;;;4983801;28;20965;-66
2021/03/19 12:50:33;;;;;;;5.60;3.47;;;5.70;99.90;;;;;;4988593;28;20462;-67
2021/03/19 12:53:02;;;;;;;8.20;3.80;;;5.60;99.90;;;;;;4962401;28;20469;-68
2021/03/19 12:55:30;;;;;;;6.23;3.43;;;5.60;99.90;;;;;;4972382;28;20463;-67
2021/03/19 12:58:12;;;;;;;3.83;3.13;;;5.60;99.90;;;;;;4972586;28;20447;-67
2021/03/19 13:00:38;;;;;;;6.50;3.50;;;5.70;99.90;;;;;;4971377;28;20534;-67
2021/03/19 13:03:05;;;;;;;3.80;3.23;;;5.70;99.90;;;;;;4980695;28;20537;-67
2021/03/19 13:05:32;;;;;;;8.70;4.07;;;5.70;99.90;;;;;;4968984;28;20577;-66
2021/03/19 13:07:59;;;;;;;5.97;4.37;;;5.70;99.90;;;;;;4963322;28;20458;-66
2021/03/19 13:10:27;;;;;;;6.33;3.70;;;5.80;99.90;;;;;;4978290;28;20461;-66
2021/03/19 13:12:53;;;;;;;6.07;3.50;;;5.80;99.90;;;;;;4977328;28;20482;-66
2021/03/19 13:15:26;;;;;;;9.63;3.60;;;5.90;99.90;;;;;;4973038;28;20461;-67
2021/03/19 13:17:51;;;;;;;5.10;4.23;;;5.90;99.90;;;;;;4976156;28;20234;-67
2021/03/19 13:20:19;;;;;;;7.00;2.93;;;5.90;99.90;;;;;;4974797;28;20469;-67
2021/03/19 13:22:45;;;;;;;2.37;1.87;;;6.00;99.90;;;;;;4972587;28;20261;-67
2021/03/19 13:25:15;;;;;;;4.67;3.20;;;6.00;99.90;;;;;;4972864;28;20680;-67
2021/03/19 13:27:41;;;;;;;4.60;2.80;;;6.00;99.90;;;;;;4975320;28;20230;-67